createdAt,value
2024-03-31T00:00:53.000Z,71.4
2024-03-31T00:02:09.746Z,71.7
2024-03-31T00:03:25.000Z,72
2024-03-31T00:04:41.364Z,72.5
2024-03-31T00:05:57.642Z,72.6
2024-03-31T00:07:14.052Z,72.3
2024-03-31T00:08:30.000Z,72.5
2024-03-31T00:09:46.000Z,72.5
2024-03-31T00:11:02.000Z,72.8
2024-03-31T00:12:19.000Z,73.2
2024-03-31T00:13:35.000Z,73
2024-03-31T00:14:51.713Z,73
2024-03-31T00:16:08.009Z,73.3
2024-03-31T00:17:24.282Z,73.2
2024-03-31T00:18:40.000Z,73.4
2024-03-31T00:19:56.000Z,73.5
2024-03-31T00:21:12.000Z,73.7
2024-03-31T00:22:28.000Z,73.8
2024-03-31T00:23:44.894Z,73.9
2024-03-31T00:25:01.000Z,74.1
2024-03-31T00:26:17.488Z,74.5
2024-03-31T00:27:33.778Z,74.5
2024-03-31T00:28:50.069Z,74.9
2024-03-31T00:30:06.370Z,74.9
2024-03-31T00:31:22.000Z,75
2024-03-31T00:32:39.000Z,75
2024-03-31T00:33:55.000Z,75.4
2024-03-31T00:35:11.000Z,75.6
2024-03-31T00:36:27.842Z,75.8
2024-03-31T00:37:44.124Z,76.1
2024-03-31T00:38:59.541Z,75.9
2024-03-31T00:40:15.839Z,76.2
2024-03-31T00:41:32.000Z,76.3
2024-03-31T00:42:48.318Z,76.7
2024-03-31T00:44:04.614Z,76.7
2024-03-31T00:45:21.000Z,76.8
2024-03-31T00:46:37.000Z,76.8
2024-03-31T00:47:53.607Z,77
2024-03-31T00:49:09.897Z,77.4
2024-03-31T00:50:26.000Z,77.7
2024-03-31T00:51:42.000Z,77.8
2024-03-31T00:52:58.000Z,77.8
2024-03-31T00:54:15.000Z,78.2
2024-03-31T00:55:30.000Z,78
2024-03-31T00:56:46.000Z,78.1
2024-03-31T00:58:02.860Z,78.5
2024-03-31T00:59:19.147Z,78.3
2024-03-31T01:00:35.442Z,78.5
2024-03-31T01:01:51.000Z,78.6
2024-03-31T01:03:08.000Z,78.8
2024-03-31T01:04:24.000Z,79
2024-03-31T01:05:40.000Z,79.2
2024-03-31T01:06:57.000Z,79.2
2024-03-31T01:08:13.208Z,79.3
2024-03-31T01:09:29.599Z,79.8
2024-03-31T01:10:45.782Z,79.7
2024-03-31T01:12:01.000Z,80
2024-03-31T01:13:17.000Z,80.3
2024-03-31T01:14:33.000Z,80.3
2024-03-31T01:15:50.000Z,80.5
2024-03-31T01:17:06.000Z,80.6
2024-03-31T01:18:22.570Z,80.8
2024-03-31T01:19:38.859Z,80.7
2024-03-31T01:20:55.139Z,80.8
2024-03-31T01:22:11.441Z,80.9
2024-03-31T01:23:27.000Z,81.1
2024-03-31T01:24:44.000Z,81.4
2024-03-31T01:26:00.000Z,81.5
2024-03-31T01:27:16.000Z,81.6
2024-03-31T01:28:32.000Z,81.7
2024-03-31T01:29:48.000Z,81.9
2024-03-31T01:31:04.502Z,81.8
2024-03-31T01:32:20.812Z,82.1
2024-03-31T01:33:37.000Z,81.9
2024-03-31T01:34:53.000Z,82.3
2024-03-31T01:36:09.000Z,82.3
2024-03-31T01:37:26.000Z,82.3
2024-03-31T01:38:42.000Z,82.5
2024-03-31T01:39:58.000Z,82.4
2024-03-31T01:41:14.858Z,82.7
2024-03-31T01:42:31.143Z,82.6
2024-03-31T01:43:47.000Z,82.7
2024-03-31T01:45:02.000Z,82.8
2024-03-31T01:46:19.000Z,82.7
2024-03-31T01:47:35.000Z,82.8
2024-03-31T01:48:51.000Z,82.8
2024-03-31T01:50:08.000Z,82.9
2024-03-31T01:51:24.000Z,83
2024-03-31T01:52:40.508Z,83.2
2024-03-31T01:53:56.811Z,83.3
2024-03-31T01:55:13.000Z,83.4
2024-03-31T01:56:29.000Z,83.4
2024-03-31T01:57:45.000Z,83.8
2024-03-31T01:59:02.000Z,83.8
2024-03-31T02:00:18.000Z,83.8
2024-03-31T02:01:33.000Z,84
2024-03-31T02:02:49.983Z,84.1
2024-03-31T02:04:06.272Z,84.3
2024-03-31T02:05:22.000Z,84.3
2024-03-31T02:06:38.000Z,84.5
2024-03-31T02:07:55.000Z,84.8
2024-03-31T02:09:11.000Z,84.8
2024-03-31T02:10:27.000Z,85
2024-03-31T02:11:44.000Z,85
2024-03-31T02:13:00.219Z,85.2
2024-03-31T02:14:16.515Z,85.4
2024-03-31T02:15:32.000Z,85.5
2024-03-31T02:16:49.000Z,85.7
2024-03-31T02:18:04.000Z,85.8
2024-03-31T02:19:20.000Z,85.9
2024-03-31T02:20:37.000Z,86
2024-03-31T02:21:53.000Z,86.2
2024-03-31T02:23:09.000Z,86.4
2024-03-31T02:24:25.876Z,86.5
2024-03-31T02:25:42.169Z,86.6
2024-03-31T02:26:58.461Z,86.8
2024-03-31T02:28:14.000Z,86.8
2024-03-31T02:29:31.000Z,86.9
2024-03-31T02:30:47.000Z,87.1
2024-03-31T02:32:03.000Z,87.2
2024-03-31T02:33:20.000Z,87.4
2024-03-31T02:34:36.458Z,87.7
2024-03-31T02:35:52.737Z,87.8
2024-03-31T02:37:08.925Z,88
2024-03-31T02:38:25.000Z,88.1
2024-03-31T02:39:41.000Z,88.3
2024-03-31T02:40:57.000Z,88.5
2024-03-31T02:42:14.000Z,88.7
2024-03-31T02:43:30.000Z,89
2024-03-31T02:44:46.699Z,89.1
2024-03-31T02:46:02.982Z,89
2024-03-31T02:47:19.283Z,89.1
2024-03-31T02:48:35.000Z,89.2
2024-03-31T02:49:52.000Z,89.3
2024-03-31T02:51:07.000Z,89.5
2024-03-31T02:52:23.000Z,89.7
2024-03-31T02:53:39.000Z,89.9
2024-03-31T02:54:56.057Z,89.9
2024-03-31T02:56:12.445Z,90.1
2024-03-31T02:57:28.652Z,90.3
2024-03-31T02:58:45.000Z,90.4
2024-03-31T03:00:01.000Z,90.4
2024-03-31T03:01:17.000Z,90.7
2024-03-31T03:02:33.812Z,90.8
2024-03-31T03:03:50.000Z,91
2024-03-31T03:05:06.000Z,91.1
2024-03-31T03:06:22.691Z,91.1
2024-03-31T03:07:38.011Z,91.1
2024-03-31T03:08:54.399Z,91.2
2024-03-31T03:10:10.000Z,91.2
2024-03-31T03:11:27.000Z,91.2
2024-03-31T03:12:43.187Z,91.2
2024-03-31T03:13:59.000Z,91.2
2024-03-31T03:15:15.000Z,91.2
2024-03-31T03:16:32.064Z,91.1
2024-03-31T03:17:48.367Z,91.1
2024-03-31T03:19:04.750Z,91
2024-03-31T03:20:21.041Z,91.1
2024-03-31T03:21:37.000Z,91
2024-03-31T03:22:53.539Z,91.1
2024-03-31T03:24:08.000Z,91.1
2024-03-31T03:25:25.000Z,90.9
2024-03-31T03:26:41.000Z,90.9
2024-03-31T03:27:57.000Z,91
2024-03-31T03:29:14.015Z,91
2024-03-31T03:30:30.319Z,91
2024-03-31T03:31:46.000Z,90.9
2024-03-31T03:33:02.888Z,91
2024-03-31T03:34:19.000Z,91
2024-03-31T03:35:35.000Z,90.9
2024-03-31T03:36:51.774Z,90.8
2024-03-31T03:38:08.000Z,90.7
2024-03-31T03:39:24.371Z,90.8
2024-03-31T03:40:39.681Z,90.6
2024-03-31T03:41:55.972Z,90.6
2024-03-31T03:43:12.000Z,90.5
2024-03-31T03:44:28.000Z,90.5
2024-03-31T03:45:44.000Z,90.5
2024-03-31T03:47:01.000Z,90.5
2024-03-31T03:48:17.000Z,90.4
2024-03-31T03:49:33.000Z,90.5
2024-03-31T03:50:50.125Z,90.6
2024-03-31T03:52:06.308Z,90.7
2024-03-31T03:53:22.000Z,91
2024-03-31T03:54:39.000Z,90.7
2024-03-31T03:55:55.000Z,90.4
2024-03-31T03:57:10.000Z,90.2
2024-03-31T03:58:26.000Z,90.1
2024-03-31T03:59:43.000Z,90.3
2024-03-31T04:00:59.000Z,90.3
2024-03-31T04:02:15.673Z,90.3
2024-03-31T04:03:31.985Z,90.5
2024-03-31T04:04:48.000Z,90.6
2024-03-31T04:06:04.000Z,90.2
2024-03-31T04:07:20.000Z,90.1
2024-03-31T04:08:37.000Z,89.8
2024-03-31T04:09:53.000Z,89.7
2024-03-31T04:11:09.000Z,89.6
2024-03-31T04:12:26.026Z,89.6
2024-03-31T04:13:41.352Z,89.6
2024-03-31T04:14:57.000Z,89.5
2024-03-31T04:16:14.000Z,89.4
2024-03-31T04:17:30.000Z,89.7
2024-03-31T04:18:46.457Z,89.5
2024-03-31T04:20:02.000Z,89.7
2024-03-31T04:21:19.000Z,89.7
2024-03-31T04:22:35.188Z,89.7
2024-03-31T04:23:51.434Z,89.7
2024-03-31T04:25:07.000Z,89.6
2024-03-31T04:26:24.000Z,89.5
2024-03-31T04:27:40.000Z,89.5
2024-03-31T04:28:56.000Z,89.4
2024-03-31T04:30:11.000Z,89.3
2024-03-31T04:31:28.000Z,89.3
2024-03-31T04:32:44.000Z,89.1
2024-03-31T04:34:00.000Z,89.1
2024-03-31T04:35:16.716Z,89
2024-03-31T04:36:32.874Z,88.9
2024-03-31T04:37:49.000Z,88.9
2024-03-31T04:39:05.000Z,89.1
2024-03-31T04:40:21.000Z,89.2
2024-03-31T04:41:38.000Z,88.7
2024-03-31T04:42:54.000Z,88.5
2024-03-31T04:44:10.000Z,88.4
2024-03-31T04:45:26.673Z,88
2024-03-31T04:46:42.910Z,88
2024-03-31T04:47:59.000Z,88.1
2024-03-31T04:49:15.000Z,88.2
2024-03-31T04:50:31.000Z,88.1
2024-03-31T04:51:48.000Z,88.1
2024-03-31T04:53:04.000Z,88.1
2024-03-31T04:54:19.000Z,88.3
2024-03-31T04:55:35.000Z,88.2
2024-03-31T04:56:51.837Z,88.1
2024-03-31T04:58:08.083Z,88.1
2024-03-31T04:59:24.000Z,88
2024-03-31T05:00:40.000Z,88.2
2024-03-31T05:01:56.000Z,88.3
2024-03-31T05:03:13.139Z,88.3
2024-03-31T05:04:29.000Z,88.3
2024-03-31T05:05:45.000Z,88.2
2024-03-31T05:07:01.754Z,88
2024-03-31T05:08:18.086Z,87.9
2024-03-31T05:09:34.000Z,87.9
2024-03-31T05:10:49.000Z,88
2024-03-31T05:12:05.740Z,88
2024-03-31T05:13:22.000Z,88.1
2024-03-31T05:14:38.000Z,88.1
2024-03-31T05:15:54.000Z,88.5
2024-03-31T05:17:10.000Z,88.3
2024-03-31T05:18:26.933Z,88.2
2024-03-31T05:19:43.167Z,88.2
2024-03-31T05:20:59.000Z,88
2024-03-31T05:22:15.000Z,88.1
2024-03-31T05:23:32.000Z,88.5
2024-03-31T05:24:48.000Z,88.5
2024-03-31T05:26:04.000Z,88.7
2024-03-31T05:27:19.000Z,88.8
2024-03-31T05:28:35.860Z,88.8
2024-03-31T05:29:52.199Z,88.7
2024-03-31T05:31:08.339Z,88.6
2024-03-31T05:32:24.000Z,88.5
2024-03-31T05:33:40.000Z,88.6
2024-03-31T05:34:57.063Z,88.6
2024-03-31T05:36:13.000Z,88.6
2024-03-31T05:37:29.000Z,88.5
2024-03-31T05:38:45.000Z,88.6
2024-03-31T05:40:02.011Z,88.5
2024-03-31T05:41:18.263Z,88.4
2024-03-31T05:42:34.000Z,88.3
2024-03-31T05:43:49.000Z,88.1
2024-03-31T05:45:06.000Z,88.1
2024-03-31T05:46:22.000Z,87.9
2024-03-31T05:47:38.000Z,87.8
2024-03-31T05:48:54.850Z,87.8
2024-03-31T05:50:11.000Z,87.9
2024-03-31T05:51:27.289Z,87.9
2024-03-31T05:52:43.427Z,87.9
2024-03-31T05:53:59.000Z,87.9
2024-03-31T05:55:16.000Z,87.6
2024-03-31T05:56:32.000Z,87.4
2024-03-31T05:57:48.000Z,87.4
2024-03-31T05:59:04.000Z,87.3
2024-03-31T06:00:20.000Z,87.5
2024-03-31T06:01:36.000Z,87.4
2024-03-31T06:02:52.367Z,87.3
2024-03-31T06:04:08.614Z,86.8
2024-03-31T06:05:24.000Z,86.8
2024-03-31T06:06:41.000Z,86.7
2024-03-31T06:07:57.000Z,86.7
2024-03-31T06:09:13.000Z,86.7
2024-03-31T06:10:29.000Z,86.4
2024-03-31T06:11:46.034Z,86.4
2024-03-31T06:13:02.275Z,86.3
2024-03-31T06:14:18.514Z,86.2
2024-03-31T06:15:34.000Z,86
2024-03-31T06:16:50.000Z,85.8
2024-03-31T06:18:06.000Z,85.8
2024-03-31T06:19:22.497Z,85.7
2024-03-31T06:20:38.000Z,85.6
2024-03-31T06:21:55.000Z,85.5
2024-03-31T06:23:11.000Z,85.3
2024-03-31T06:24:27.538Z,85.2
2024-03-31T06:25:43.000Z,85.1
2024-03-31T06:26:59.941Z,85.1
2024-03-31T06:28:16.000Z,85.2
2024-03-31T06:29:32.000Z,85.1
2024-03-31T06:30:48.000Z,84.9
2024-03-31T06:32:05.000Z,84.7
2024-03-31T06:33:21.000Z,84.7
2024-03-31T06:34:36.000Z,84.5
2024-03-31T06:35:52.624Z,84.3
2024-03-31T06:37:08.000Z,84.3
2024-03-31T06:38:25.000Z,84
2024-03-31T06:39:41.000Z,83.8
2024-03-31T06:40:57.579Z,83.9
2024-03-31T06:42:13.000Z,83.7
2024-03-31T06:43:30.000Z,83.6
2024-03-31T06:44:46.000Z,83.7
2024-03-31T06:46:02.000Z,83.4
2024-03-31T06:47:18.780Z,83.5
2024-03-31T06:48:35.024Z,83.7
2024-03-31T06:49:51.000Z,83.5
2024-03-31T06:51:07.000Z,83.5
2024-03-31T06:52:22.000Z,83.5
2024-03-31T06:53:39.000Z,83.7
2024-03-31T06:54:55.000Z,83.7
2024-03-31T06:56:11.000Z,83.8
2024-03-31T06:57:27.705Z,83.7
2024-03-31T06:58:43.948Z,83.7
2024-03-31T07:00:00.272Z,83.8
2024-03-31T07:01:16.000Z,83.6
2024-03-31T07:02:32.000Z,83.5
2024-03-31T07:03:48.902Z,83.5
2024-03-31T07:05:05.000Z,83.6
2024-03-31T07:06:21.000Z,83.7
2024-03-31T07:07:37.634Z,83.7
2024-03-31T07:08:53.868Z,84
2024-03-31T07:10:09.115Z,84.1
2024-03-31T07:11:25.000Z,84
2024-03-31T07:12:41.000Z,84
2024-03-31T07:13:57.000Z,83.7
2024-03-31T07:15:14.000Z,83.7
2024-03-31T07:16:30.000Z,83.7
2024-03-31T07:17:46.000Z,83.5
2024-03-31T07:19:02.802Z,83.5
2024-03-31T07:20:19.125Z,83.7
2024-03-31T07:21:35.000Z,83.7
2024-03-31T07:22:51.000Z,83.8
2024-03-31T07:24:07.000Z,83.8
2024-03-31T07:25:24.000Z,83.5
2024-03-31T07:26:39.000Z,83.5
2024-03-31T07:27:55.000Z,83.4
2024-03-31T07:29:11.720Z,82.7
2024-03-31T07:30:27.963Z,82.7
2024-03-31T07:31:44.300Z,82.3
2024-03-31T07:33:00.000Z,82.1
2024-03-31T07:34:16.000Z,81.7
2024-03-31T07:35:33.000Z,81.7
2024-03-31T07:36:49.000Z,81.9
2024-03-31T07:38:05.000Z,81.7
2024-03-31T07:39:21.000Z,81.7
2024-03-31T07:40:37.878Z,81.9
2024-03-31T07:41:54.130Z,81.2
2024-03-31T07:43:09.000Z,81.4
2024-03-31T07:44:25.000Z,81.7
2024-03-31T07:45:41.000Z,81.7
2024-03-31T07:46:58.000Z,81.6
2024-03-31T07:48:14.000Z,81.5
2024-03-31T07:49:30.000Z,81.1
2024-03-31T07:50:46.823Z,81
2024-03-31T07:52:03.055Z,80.7
2024-03-31T07:53:19.289Z,81.1
2024-03-31T07:54:35.000Z,81.1
2024-03-31T07:55:51.000Z,81.1
2024-03-31T07:57:08.000Z,81.2
2024-03-31T07:58:24.000Z,81.1
2024-03-31T07:59:39.000Z,79.9
2024-03-31T08:00:55.000Z,79
2024-03-31T08:02:11.979Z,78.8
2024-03-31T08:03:28.306Z,78.5
2024-03-31T08:04:44.000Z,78.5
2024-03-31T08:06:00.000Z,78.8
2024-03-31T08:07:16.933Z,78.5
2024-03-31T08:08:33.000Z,78.3
2024-03-31T08:09:49.000Z,78.3
2024-03-31T08:11:05.000Z,78.1
2024-03-31T08:12:21.891Z,77.9
2024-03-31T08:13:38.135Z,78
2024-03-31T08:14:54.000Z,77.1
2024-03-31T08:16:09.000Z,77.4
2024-03-31T08:17:25.000Z,77.3
2024-03-31T08:18:42.000Z,77.4
2024-03-31T08:19:58.000Z,77.3
2024-03-31T08:21:14.000Z,76.8
2024-03-31T08:22:30.834Z,77.4
2024-03-31T08:23:47.062Z,77.2
2024-03-31T08:25:03.304Z,77.1
2024-03-31T08:26:19.000Z,76.8
2024-03-31T08:27:35.000Z,76.9
2024-03-31T08:28:52.000Z,76.8
2024-03-31T08:30:08.000Z,77.2
2024-03-31T08:31:24.000Z,77.2
2024-03-31T08:32:39.000Z,77.3
2024-03-31T08:33:56.000Z,77.2
2024-03-31T08:35:12.245Z,77.3
2024-03-31T08:36:28.480Z,77.6
2024-03-31T08:37:44.707Z,77
2024-03-31T08:39:01.000Z,76.8
2024-03-31T08:40:17.191Z,76.4
2024-03-31T08:41:33.507Z,77
2024-03-31T08:42:49.000Z,77
2024-03-31T08:44:05.992Z,77.5
2024-03-31T08:45:22.152Z,77
2024-03-31T08:46:38.383Z,77
2024-03-31T08:47:54.628Z,76.7
2024-03-31T08:49:11.000Z,76.4
2024-03-31T08:50:27.000Z,76.4
2024-03-31T08:51:42.000Z,76.5
2024-03-31T08:52:57.000Z,76.2
2024-03-31T08:54:13.000Z,76.8
2024-03-31T08:55:30.000Z,76.4
2024-03-31T08:56:46.428Z,76.3
2024-03-31T08:58:02.594Z,76.5
2024-03-31T08:59:18.819Z,76.5
2024-03-31T09:00:35.063Z,76.5
2024-03-31T09:01:51.000Z,75.7
2024-03-31T09:03:07.000Z,75.6
2024-03-31T09:04:23.000Z,75.5
2024-03-31T09:05:40.000Z,75.5
2024-03-31T09:06:56.262Z,75.8
2024-03-31T09:08:12.505Z,75.3
2024-03-31T09:09:27.755Z,75.6
2024-03-31T09:10:43.990Z,75.4
2024-03-31T09:12:00.000Z,75.2
2024-03-31T09:13:16.000Z,75.3
2024-03-31T09:14:32.000Z,75.6
2024-03-31T09:15:49.000Z,76.1
2024-03-31T09:17:05.000Z,76.1
2024-03-31T09:18:21.434Z,75.7
2024-03-31T09:19:37.678Z,75.3
2024-03-31T09:20:53.921Z,75.1
2024-03-31T09:22:10.000Z,74.4
2024-03-31T09:23:26.000Z,74.1
2024-03-31T09:24:42.000Z,74.3
2024-03-31T09:25:58.000Z,74.5
2024-03-31T09:27:14.000Z,74.7
2024-03-31T09:28:30.000Z,74.8
2024-03-31T09:29:46.000Z,75.2
2024-03-31T09:31:02.848Z,74.7
2024-03-31T09:32:19.091Z,74.2
2024-03-31T09:33:35.000Z,73.9
2024-03-31T09:34:51.000Z,73.9
2024-03-31T09:36:07.000Z,73.5
2024-03-31T09:37:24.000Z,73.3
2024-03-31T09:38:40.000Z,73.4
2024-03-31T09:39:56.000Z,73.7
2024-03-31T09:41:12.777Z,74.3
2024-03-31T09:42:28.024Z,73.8
2024-03-31T09:43:44.260Z,73.9
2024-03-31T09:45:00.000Z,73.5
2024-03-31T09:46:16.000Z,73.9
2024-03-31T09:47:33.000Z,73.8
2024-03-31T09:48:49.000Z,74.2
2024-03-31T09:50:05.000Z,74
2024-03-31T09:51:21.714Z,73
2024-03-31T09:52:37.935Z,73.2
2024-03-31T09:53:54.176Z,72.8
2024-03-31T09:55:10.000Z,71.6
2024-03-31T09:56:26.000Z,71.3
2024-03-31T09:57:43.000Z,71.6
2024-03-31T09:58:59.000Z,71.5
2024-03-31T10:00:15.000Z,71.6
2024-03-31T10:01:30.000Z,71.7
2024-03-31T10:02:46.873Z,71.7
2024-03-31T10:04:03.119Z,71.9
2024-03-31T10:05:19.447Z,72.1
2024-03-31T10:06:35.000Z,71.7
2024-03-31T10:07:51.000Z,71.2
2024-03-31T10:09:08.000Z,71.3
2024-03-31T10:10:24.000Z,71.3
2024-03-31T10:11:40.000Z,70.8
2024-03-31T10:12:56.792Z,70.5
2024-03-31T10:14:13.026Z,70.3
2024-03-31T10:15:29.274Z,70.5
2024-03-31T10:16:45.000Z,71.1
2024-03-31T10:18:00.000Z,71.3
2024-03-31T10:19:17.000Z,71
2024-03-31T10:20:33.000Z,71
2024-03-31T10:21:49.000Z,71
2024-03-31T10:23:05.000Z,70.9
2024-03-31T10:24:21.961Z,70.7
2024-03-31T10:25:38.197Z,70.5
2024-03-31T10:26:54.000Z,70.6
2024-03-31T10:28:10.000Z,70.6
2024-03-31T10:29:27.000Z,70.7
2024-03-31T10:30:43.000Z,71
2024-03-31T10:31:59.388Z,70.8
2024-03-31T10:33:15.000Z,70.6
2024-03-31T10:34:31.000Z,70.3
2024-03-31T10:35:47.000Z,70.7
2024-03-31T10:37:03.357Z,70.5
2024-03-31T10:38:19.597Z,70.5
2024-03-31T10:39:35.000Z,70.6
2024-03-31T10:40:52.000Z,70.3
2024-03-31T10:42:08.000Z,69.8
2024-03-31T10:43:24.000Z,69.8
2024-03-31T10:44:40.921Z,69.5
2024-03-31T10:45:57.000Z,69.5
2024-03-31T10:47:13.341Z,69.2
2024-03-31T10:48:29.509Z,68.7
2024-03-31T10:49:45.000Z,68.5
2024-03-31T10:51:01.000Z,68.6
2024-03-31T10:52:17.000Z,68
2024-03-31T10:53:33.000Z,67.5
2024-03-31T10:54:49.000Z,67.4
2024-03-31T10:56:06.000Z,67.1
2024-03-31T10:57:22.000Z,66.7
2024-03-31T10:58:38.444Z,66.5
2024-03-31T10:59:54.692Z,66.5
2024-03-31T11:01:10.995Z,66.2
2024-03-31T11:02:27.000Z,66.3
2024-03-31T11:03:43.000Z,66.5
2024-03-31T11:04:59.000Z,66
2024-03-31T11:06:16.000Z,65.5
2024-03-31T11:07:31.000Z,65.8
2024-03-31T11:08:47.000Z,66.2
2024-03-31T11:10:03.686Z,66
2024-03-31T11:11:19.845Z,65.1
2024-03-31T11:12:36.000Z,64.8
2024-03-31T11:13:52.000Z,64.7
2024-03-31T11:15:08.000Z,64.6
2024-03-31T11:16:24.000Z,63.5
2024-03-31T11:17:41.000Z,64
2024-03-31T11:18:57.000Z,64.1
2024-03-31T11:20:13.520Z,64.3
2024-03-31T11:21:29.764Z,64.4
2024-03-31T11:22:46.000Z,64.2
2024-03-31T11:24:01.000Z,63.6
2024-03-31T11:25:17.000Z,63.3
2024-03-31T11:26:33.000Z,63.9
2024-03-31T11:27:50.000Z,63.1
2024-03-31T11:29:06.000Z,62.7
2024-03-31T11:30:22.000Z,62.3
2024-03-31T11:31:38.702Z,62.3
2024-03-31T11:32:54.946Z,62
2024-03-31T11:34:11.181Z,62
2024-03-31T11:35:27.000Z,62.1
2024-03-31T11:36:43.000Z,62.2
2024-03-31T11:38:00.000Z,61.7
2024-03-31T11:39:16.000Z,61.4
2024-03-31T11:40:31.401Z,61.3
2024-03-31T11:41:47.000Z,61
2024-03-31T11:43:03.867Z,61.7
2024-03-31T11:44:20.101Z,61.5
2024-03-31T11:45:36.000Z,61.8
2024-03-31T11:46:52.000Z,61.4
2024-03-31T11:48:08.000Z,61.5
2024-03-31T11:49:25.071Z,61.1
2024-03-31T11:50:41.000Z,61.1
2024-03-31T11:51:57.000Z,60.9
2024-03-31T11:53:13.792Z,60.7
2024-03-31T11:54:30.016Z,60.6
2024-03-31T11:55:46.257Z,60.3
2024-03-31T11:57:01.000Z,60
2024-03-31T11:58:17.752Z,60.5
2024-03-31T11:59:34.000Z,61.1
2024-03-31T12:00:50.000Z,60.7
2024-03-31T12:02:06.000Z,60.7
2024-03-31T12:03:22.000Z,60.8
2024-03-31T12:04:38.949Z,61.2
2024-03-31T12:05:55.275Z,60.8
2024-03-31T12:07:11.000Z,60.7
2024-03-31T12:08:27.000Z,60.5
2024-03-31T12:09:44.000Z,60.1
2024-03-31T12:11:00.000Z,59.7
2024-03-31T12:12:16.000Z,59.1
2024-03-31T12:13:31.000Z,59.4
2024-03-31T12:14:48.000Z,60
2024-03-31T12:16:04.122Z,59.8
2024-03-31T12:17:20.358Z,59.9
2024-03-31T12:18:36.000Z,59.5
2024-03-31T12:19:52.000Z,59.2
2024-03-31T12:21:09.156Z,59.7
2024-03-31T12:22:25.000Z,59.9
2024-03-31T12:23:41.000Z,59.6
2024-03-31T12:24:57.000Z,59.3
2024-03-31T12:26:14.045Z,59.3
2024-03-31T12:27:30.344Z,59.4
2024-03-31T12:28:46.000Z,59.5
2024-03-31T12:30:01.000Z,59.8
2024-03-31T12:31:18.000Z,59.8
2024-03-31T12:32:34.000Z,60.2
2024-03-31T12:33:50.486Z,60.5
2024-03-31T12:35:06.000Z,60.7
2024-03-31T12:36:23.000Z,60.9
2024-03-31T12:37:39.278Z,60.3
2024-03-31T12:38:55.442Z,59.8
2024-03-31T12:40:11.000Z,60.4
2024-03-31T12:41:28.000Z,59.7
2024-03-31T12:42:44.000Z,59.4
2024-03-31T12:44:00.000Z,59.3
2024-03-31T12:45:16.000Z,59.5
2024-03-31T12:46:32.000Z,59.2
2024-03-31T12:47:48.000Z,58.8
2024-03-31T12:49:04.367Z,58.6
2024-03-31T12:50:20.000Z,59.1
2024-03-31T12:51:36.843Z,59.8
2024-03-31T12:52:53.000Z,60
2024-03-31T12:54:09.332Z,60.7
2024-03-31T12:55:25.562Z,60.9
2024-03-31T12:56:41.816Z,60.9
2024-03-31T12:57:58.000Z,61.3
2024-03-31T12:59:14.000Z,61.3
2024-03-31T13:00:30.000Z,61
2024-03-31T13:01:46.000Z,61.1
2024-03-31T13:03:02.000Z,61.3
2024-03-31T13:04:18.262Z,60.8
2024-03-31T13:05:34.568Z,60.5
2024-03-31T13:06:50.740Z,60.8
2024-03-31T13:08:06.059Z,60.6
2024-03-31T13:09:22.000Z,59.9
2024-03-31T13:10:38.000Z,59.7
2024-03-31T13:11:54.722Z,59
2024-03-31T13:13:11.000Z,59
2024-03-31T13:14:27.000Z,59.4
2024-03-31T13:15:43.552Z,59.1
2024-03-31T13:16:59.672Z,59.3
2024-03-31T13:18:15.917Z,59.7
2024-03-31T13:19:32.000Z,59.7
2024-03-31T13:20:48.000Z,59.9
2024-03-31T13:22:04.000Z,59.7
2024-03-31T13:23:20.000Z,58.9
2024-03-31T13:24:36.000Z,59.5
2024-03-31T13:25:52.355Z,59
2024-03-31T13:27:08.597Z,59.4
2024-03-31T13:28:24.837Z,59.9
2024-03-31T13:29:41.084Z,59.5
2024-03-31T13:30:57.000Z,59.3
2024-03-31T13:32:13.000Z,59.5
2024-03-31T13:33:29.000Z,59.6
2024-03-31T13:34:46.000Z,59.9
2024-03-31T13:36:02.000Z,60.4
2024-03-31T13:37:18.579Z,60
2024-03-31T13:38:34.751Z,59.5
2024-03-31T13:39:50.992Z,59.2
2024-03-31T13:41:06.000Z,59.9
2024-03-31T13:42:22.000Z,59.7
2024-03-31T13:43:38.000Z,58.7
2024-03-31T13:44:55.000Z,59.2
2024-03-31T13:46:11.000Z,59.7
2024-03-31T13:47:27.000Z,59.9
2024-03-31T13:48:43.692Z,59.2
2024-03-31T13:49:59.934Z,59
2024-03-31T13:51:16.000Z,58.9
2024-03-31T13:52:32.475Z,59
2024-03-31T13:53:48.000Z,59.3
2024-03-31T13:55:04.885Z,59.5
2024-03-31T13:56:21.000Z,60.2
2024-03-31T13:57:36.000Z,60.4
2024-03-31T13:58:52.000Z,60.6
2024-03-31T14:00:08.861Z,60.1
2024-03-31T14:01:25.090Z,60.4
2024-03-31T14:02:41.000Z,60.2
2024-03-31T14:03:57.000Z,59.5
2024-03-31T14:05:13.000Z,59.5
2024-03-31T14:06:30.000Z,59.5
2024-03-31T14:07:46.000Z,61.8
2024-03-31T14:09:02.000Z,63.2
2024-03-31T14:10:18.771Z,63.8
2024-03-31T14:11:35.079Z,63.8
2024-03-31T14:12:51.249Z,64.3
2024-03-31T14:14:06.572Z,64.6
2024-03-31T14:15:22.000Z,64.9
2024-03-31T14:16:39.000Z,65
2024-03-31T14:17:55.000Z,65.8
2024-03-31T14:19:11.000Z,65.7
2024-03-31T14:20:27.702Z,65.7
2024-03-31T14:21:43.942Z,66
2024-03-31T14:23:00.239Z,66.9
2024-03-31T14:24:16.430Z,66.2
2024-03-31T14:25:32.000Z,66.5
2024-03-31T14:26:49.000Z,66.1
2024-03-31T14:28:05.134Z,66.7
2024-03-31T14:29:21.000Z,66.8
2024-03-31T14:30:37.622Z,65.7
2024-03-31T14:31:54.033Z,65.6
2024-03-31T14:33:10.223Z,66
2024-03-31T14:34:26.000Z,66.3
2024-03-31T14:35:42.000Z,66.4
2024-03-31T14:36:59.000Z,66.4
2024-03-31T14:38:15.231Z,66.5
2024-03-31T14:39:31.000Z,66.6
2024-03-31T14:40:47.000Z,66.5
2024-03-31T14:42:03.900Z,66.9
2024-03-31T14:43:20.134Z,67.2
2024-03-31T14:44:36.000Z,67.2
2024-03-31T14:45:52.671Z,67.1
2024-03-31T14:47:08.916Z,67.3
2024-03-31T14:48:24.116Z,67.1
2024-03-31T14:49:40.346Z,67.1
2024-03-31T14:50:56.589Z,66.7
2024-03-31T14:52:12.000Z,67
2024-03-31T14:53:29.127Z,67
2024-03-31T14:54:45.309Z,67.3
2024-03-31T14:56:01.539Z,67.1
2024-03-31T14:57:17.000Z,67.5
2024-03-31T14:58:34.000Z,67.3
2024-03-31T14:59:50.000Z,67.1
2024-03-31T15:01:06.579Z,67
2024-03-31T15:02:22.000Z,66.4
2024-03-31T15:03:39.059Z,66.7
2024-03-31T15:04:54.317Z,67.2
2024-03-31T15:06:10.556Z,67.3
2024-03-31T15:07:26.000Z,67.3
2024-03-31T15:08:43.030Z,66.9
2024-03-31T15:09:59.000Z,67.2
2024-03-31T15:11:15.000Z,67.1
2024-03-31T15:12:31.000Z,67.5
2024-03-31T15:13:47.989Z,66.9
2024-03-31T15:15:04.223Z,67.3
2024-03-31T15:16:20.467Z,66.8
2024-03-31T15:17:36.000Z,66.7
2024-03-31T15:18:52.943Z,66.6
2024-03-31T15:20:09.178Z,67.1
2024-03-31T15:21:24.441Z,67.4
2024-03-31T15:22:40.000Z,67.4
2024-03-31T15:23:56.926Z,66.9
2024-03-31T15:25:13.000Z,67.6
2024-03-31T15:26:29.404Z,67.4
2024-03-31T15:27:45.635Z,66.9
2024-03-31T15:29:01.870Z,67.1
2024-03-31T15:30:18.000Z,68
2024-03-31T15:31:34.363Z,68.4
2024-03-31T15:32:50.602Z,67.7
2024-03-31T15:34:06.824Z,67.7
2024-03-31T15:35:23.000Z,67.8
2024-03-31T15:36:39.311Z,68.1
2024-03-31T15:37:54.574Z,68.6
2024-03-31T15:39:10.810Z,68.6
2024-03-31T15:40:27.000Z,68.4
2024-03-31T15:41:43.000Z,68.5
2024-03-31T15:42:59.521Z,68
2024-03-31T15:44:15.766Z,68.1
2024-03-31T15:45:31.996Z,68.4
2024-03-31T15:46:48.248Z,68.4
2024-03-31T15:48:04.483Z,68.7
2024-03-31T15:49:20.725Z,69
2024-03-31T15:50:36.000Z,68.9
2024-03-31T15:51:53.205Z,69.3
2024-03-31T15:53:09.429Z,69.2
2024-03-31T15:54:24.693Z,68.7
2024-03-31T15:55:40.000Z,68.8
2024-03-31T15:56:57.160Z,68.7
2024-03-31T15:58:13.404Z,69.1
2024-03-31T15:59:29.658Z,68.7
2024-03-31T16:00:45.880Z,68.7
2024-03-31T16:02:02.121Z,68.7
2024-03-31T16:03:18.000Z,68.8
2024-03-31T16:04:34.598Z,68.3
2024-03-31T16:05:50.850Z,68.4
2024-03-31T16:07:07.082Z,68.7
2024-03-31T16:08:23.322Z,68.4
2024-03-31T16:09:39.555Z,68.4
2024-03-31T16:10:54.824Z,67.6
2024-03-31T16:12:11.057Z,67.8
2024-03-31T16:13:27.000Z,68
2024-03-31T16:14:43.533Z,68
2024-03-31T16:15:59.782Z,67.9
2024-03-31T16:17:16.005Z,68
2024-03-31T16:18:32.000Z,68
2024-03-31T16:19:48.483Z,67.7
2024-03-31T16:21:04.728Z,66.8
2024-03-31T16:22:20.963Z,66.2
2024-03-31T16:23:37.207Z,66.1
2024-03-31T16:24:53.443Z,66.6
2024-03-31T16:26:09.000Z,66.1
2024-03-31T16:27:24.944Z,66
2024-03-31T16:28:41.000Z,65.6
2024-03-31T16:29:57.417Z,65.2
2024-03-31T16:31:13.000Z,65.3
2024-03-31T16:32:29.907Z,64.7
2024-03-31T16:33:46.134Z,64.2
2024-03-31T16:35:02.369Z,64.1
2024-03-31T16:36:18.623Z,64.6
2024-03-31T16:37:34.865Z,64.5
2024-03-31T16:38:51.000Z,64.3
2024-03-31T16:40:07.334Z,64.3
2024-03-31T16:41:23.584Z,64
2024-03-31T16:42:39.815Z,64.5
2024-03-31T16:43:56.184Z,64.8
2024-03-31T16:45:12.000Z,64.8
2024-03-31T16:46:28.666Z,64.3
2024-03-31T16:47:44.883Z,64.3
2024-03-31T16:49:01.000Z,64.4
2024-03-31T16:50:17.000Z,64.4
2024-03-31T16:51:33.000Z,64.1
2024-03-31T16:52:49.839Z,64.6
2024-03-31T16:54:06.081Z,64.4
2024-03-31T16:55:22.325Z,63.9
2024-03-31T16:56:38.000Z,64
2024-03-31T16:57:54.000Z,64.5
2024-03-31T16:59:11.000Z,64.9
2024-03-31T17:00:27.000Z,65.2
2024-03-31T17:01:42.000Z,65.6